Time;durP1;ratioP1;P1;durP2;ratioP2;P2;SDS_P1;SDS_P2;PMS_P1;PMS_P2;Temp;Humidity;BMP_temperature;BMP_pressure;BME280_temperature;BME280_humidity;BME280_pressure;Samples;Min_cycle;Max_cycle;Signal;HPM_P1;HPM_P2
2022/07/19 00:02:08;;;;;;;7.55;3.30;;;22.20;85.70;;;;;;5092395;28;20051;-66
2022/07/19 00:04:35;;;;;;;6.55;3.33;;;22.20;85.90;;;;;;5093125;28;20028;-65
2022/07/19 00:07:02;;;;;;;4.40;2.70;;;22.20;85.40;;;;;;5105137;22;20059;-70
2022/07/19 00:09:28;;;;;;;6.72;3.10;;;22.10;85.70;;;;;;5091408;28;20039;-70
2022/07/19 00:11:54;;;;;;;8.68;2.80;;;22.10;85.60;;;;;;5092877;28;20447;-70
2022/07/19 00:14:21;;;;;;;5.50;3.10;;;22.10;85.10;;;;;;5092801;28;20031;-70
2022/07/19 00:16:47;;;;;;;6.43;2.63;;;22.10;85.50;;;;;;5092580;28;20020;-70
2022/07/19 00:19:13;;;;;;;5.20;2.63;;;22.00;85.60;;;;;;5092497;28;20031;-70
2022/07/19 00:21:39;;;;;;;5.20;3.15;;;22.00;85.40;;;;;;5092671;28;20107;-70
2022/07/19 00:24:05;;;;;;;5.70;2.95;;;22.00;85.60;;;;;;5092560;28;20028;-70
2022/07/19 00:26:31;;;;;;;5.53;3.03;;;22.00;85.70;;;;;;5092439;28;20055;-70
2022/07/19 00:29:00;;;;;;;6.13;3.00;;;21.90;86.60;;;;;;5074139;28;20507;-70
2022/07/19 00:31:26;;;;;;;6.88;2.95;;;21.90;86.00;;;;;;5091064;28;20028;-70
2022/07/19 00:33:52;;;;;;;6.60;3.38;;;21.90;86.30;;;;;;5092329;28;20032;-70
2022/07/19 00:36:19;;;;;;;6.70;3.35;;;21.90;86.50;;;;;;5092390;28;20030;-70
2022/07/19 00:38:46;;;;;;;7.35;2.70;;;21.90;86.40;;;;;;5090812;28;20024;-70
2022/07/19 00:41:12;;;;;;;6.45;3.00;;;21.80;86.50;;;;;;5092410;28;20372;-70
2022/07/19 00:43:43;;;;;;;4.32;2.97;;;21.80;86.10;;;;;;5092215;28;20028;-70
2022/07/19 00:46:16;;;;;;;6.85;3.03;;;21.80;86.50;;;;;;5092057;28;20400;-70
2022/07/19 00:48:42;;;;;;;4.72;2.58;;;21.70;86.70;;;;;;5091792;28;20089;-70
2022/07/19 00:51:12;;;;;;;9.07;3.00;;;21.80;87.10;;;;;;5092046;28;20040;-70
2022/07/19 00:53:40;;;;;;;5.90;2.90;;;21.70;87.00;;;;;;5091851;28;20173;-70
2022/07/19 00:56:08;;;;;;;7.90;3.10;;;21.70;87.00;;;;;;5091925;28;20036;-70
2022/07/19 00:58:35;;;;;;;5.70;2.85;;;21.70;87.30;;;;;;5091676;28;20114;-70
2022/07/19 01:01:03;;;;;;;6.10;2.80;;;21.70;87.10;;;;;;5092068;28;20032;-70
2022/07/19 01:03:29;;;;;;;8.75;2.80;;;21.70;87.80;;;;;;5091885;28;20165;-70
2022/07/19 01:05:56;;;;;;;7.22;3.28;;;21.70;87.70;;;;;;5091635;28;20039;-70
2022/07/19 01:08:22;;;;;;;6.45;3.42;;;21.70;87.90;;;;;;5091595;28;20557;-70
2022/07/19 01:10:49;;;;;;;4.93;2.78;;;21.70;87.60;;;;;;5090138;28;20071;-70
2022/07/19 01:13:15;;;;;;;5.40;2.85;;;21.60;88.20;;;;;;5090659;28;20498;-70
2022/07/19 01:15:42;;;;;;;5.72;3.00;;;21.60;88.60;;;;;;5091709;28;20020;-70
2022/07/19 01:18:09;;;;;;;7.35;3.60;;;21.50;89.30;;;;;;5091877;28;20079;-71
2022/07/19 01:20:35;;;;;;;5.35;3.17;;;21.50;90.10;;;;;;5091832;28;20027;-70
2022/07/19 01:23:01;;;;;;;5.28;2.90;;;21.40;90.30;;;;;;5091989;28;20051;-70
2022/07/19 01:25:34;;;;;;;6.85;2.83;;;21.40;90.40;;;;;;5091949;28;20052;-70
2022/07/19 01:28:00;;;;;;;6.90;3.15;;;21.40;90.50;;;;;;5092263;28;20038;-70
2022/07/19 01:30:27;;;;;;;6.30;2.88;;;21.40;90.50;;;;;;5091318;28;20124;-70
2022/07/19 01:32:54;;;;;;;6.45;3.25;;;21.40;90.60;;;;;;5091590;28;20055;-70
2022/07/19 01:35:21;;;;;;;6.15;3.13;;;21.30;90.70;;;;;;5091391;28;20107;-70
2022/07/19 01:37:48;;;;;;;5.68;2.90;;;21.30;90.80;;;;;;5091198;28;20027;-70
2022/07/19 01:40:15;;;;;;;4.05;2.80;;;21.30;90.90;;;;;;5091330;28;20392;-71
2022/07/19 01:42:42;;;;;;;5.55;2.83;;;21.30;90.80;;;;;;5091183;28;20025;-70
2022/07/19 01:45:09;;;;;;;6.60;3.00;;;21.30;91.00;;;;;;5091235;28;20028;-70
2022/07/19 01:47:36;;;;;;;6.65;2.78;;;21.30;90.90;;;;;;5090996;28;20027;-70
2022/07/19 01:50:04;;;;;;;5.63;2.90;;;21.30;90.90;;;;;;5090812;28;20440;-71
2022/07/19 01:52:30;;;;;;;5.30;3.20;;;21.20;90.90;;;;;;5089670;28;20055;-70
2022/07/19 01:54:55;;;;;;;5.55;2.97;;;21.20;90.80;;;;;;5090997;28;20087;-71
2022/07/19 01:57:21;;;;;;;7.80;3.42;;;21.20;90.90;;;;;;5090925;28;20016;-71
2022/07/19 01:59:47;;;;;;;6.45;3.08;;;21.30;90.90;;;;;;5090923;28;20376;-71
2022/07/19 02:02:13;;;;;;;7.78;2.70;;;21.30;91.00;;;;;;5091088;28;20016;-71
2022/07/19 02:04:39;;;;;;;5.72;2.78;;;21.20;91.00;;;;;;5090997;28;20089;-71
2022/07/19 02:07:05;;;;;;;7.47;3.13;;;21.20;91.00;;;;;;5090744;28;20040;-71
2022/07/19 02:09:31;;;;;;;5.78;3.00;;;21.20;91.00;;;;;;5090647;28;20115;-71
2022/07/19 02:11:57;;;;;;;6.20;3.17;;;21.20;91.00;;;;;;5090881;28;20426;-71
2022/07/19 02:14:23;;;;;;;8.25;3.50;;;21.20;90.80;;;;;;5090784;28;20090;-71
2022/07/19 02:16:48;;;;;;;5.88;2.90;;;21.20;90.80;;;;;;5090797;28;20020;-71
2022/07/19 02:19:14;;;;;;;7.65;3.00;;;21.20;90.80;;;;;;5090645;28;20412;-71
2022/07/19 02:21:40;;;;;;;4.28;2.67;;;21.20;90.70;;;;;;5090798;28;20035;-71
2022/07/19 02:24:07;;;;;;;7.85;2.85;;;21.20;90.50;;;;;;5092138;28;20369;-71
2022/07/19 02:26:34;;;;;;;4.90;2.60;;;21.20;90.50;;;;;;5094636;28;20399;-71
2022/07/19 02:29:01;;;;;;;5.50;2.88;;;21.10;90.50;;;;;;5093312;28;20047;-71
2022/07/19 02:31:27;;;;;;;4.80;2.72;;;21.10;90.50;;;;;;5094841;28;20077;-70
2022/07/19 02:33:53;;;;;;;6.03;3.70;;;21.10;90.50;;;;;;5094715;28;20035;-71
2022/07/19 02:36:19;;;;;;;6.55;3.28;;;21.10;90.60;;;;;;5094439;28;20024;-71
2022/07/19 02:38:45;;;;;;;6.85;3.42;;;21.00;90.60;;;;;;5094599;28;20022;-71
2022/07/19 02:41:11;;;;;;;8.35;3.55;;;21.00;90.50;;;;;;5094618;28;20027;-71
2022/07/19 02:43:37;;;;;;;9.48;3.05;;;21.00;90.50;;;;;;5094587;28;20140;-71
2022/07/19 02:46:04;;;;;;;4.88;3.03;;;21.00;90.50;;;;;;5094426;28;20065;-71
2022/07/19 02:48:30;;;;;;;6.55;3.20;;;21.00;90.40;;;;;;5094286;28;20028;-71
2022/07/19 02:50:55;;;;;;;5.28;2.92;;;21.00;90.20;;;;;;5094087;28;20055;-70
2022/07/19 02:53:21;;;;;;;6.20;3.08;;;21.00;90.20;;;;;;5094918;28;20047;-71
2022/07/19 02:55:47;;;;;;;5.82;2.67;;;21.00;90.20;;;;;;5094207;28;20031;-71
2022/07/19 02:58:13;;;;;;;5.30;2.60;;;20.90;90.10;;;;;;5094376;28;20032;-71
2022/07/19 03:00:39;;;;;;;6.45;2.80;;;20.90;90.10;;;;;;5093993;28;20385;-71
2022/07/19 03:05:49;;;;;;;9.25;3.45;;;20.90;90.00;;;;;;5094160;28;20078;-71
2022/07/19 03:08:15;;;;;;;8.20;3.00;;;20.90;90.00;;;;;;5093881;28;20488;-71
2022/07/19 03:10:41;;;;;;;6.28;2.92;;;20.80;90.00;;;;;;5093886;28;20032;-71
2022/07/19 03:13:08;;;;;;;5.55;2.80;;;20.80;89.80;;;;;;5093977;28;20032;-71
2022/07/19 03:15:35;;;;;;;8.30;2.70;;;20.80;89.40;;;;;;5093893;28;20031;-71
2022/07/19 03:18:01;;;;;;;4.95;2.72;;;20.80;89.20;;;;;;5093762;28;20389;-71
2022/07/19 03:20:27;;;;;;;5.82;2.75;;;20.80;88.90;;;;;;5093829;28;20310;-70
2022/07/19 03:22:54;;;;;;;5.75;2.83;;;20.80;88.70;;;;;;5092573;28;20508;-71
2022/07/19 03:25:20;;;;;;;6.50;2.28;;;20.70;88.40;;;;;;5093956;28;20465;-70
2022/07/19 03:27:46;;;;;;;4.03;2.20;;;20.70;88.20;;;;;;5094023;28;20039;-70
2022/07/19 03:30:12;;;;;;;4.80;2.33;;;20.70;88.00;;;;;;5092213;28;20115;-70
2022/07/19 03:32:38;;;;;;;4.88;2.47;;;20.70;87.70;;;;;;5093302;28;20030;-71
2022/07/19 03:35:04;;;;;;;5.07;2.20;;;20.70;87.40;;;;;;5092988;28;20395;-71
2022/07/19 03:37:30;;;;;;;4.75;2.33;;;20.70;87.30;;;;;;5093089;28;20028;-70
2022/07/19 03:39:56;;;;;;;6.45;2.50;;;20.70;87.50;;;;;;5093044;28;20020;-70
2022/07/19 03:42:22;;;;;;;4.28;2.30;;;20.60;87.40;;;;;;5093287;28;20134;-71
2022/07/19 03:44:48;;;;;;;15.27;2.33;;;20.60;87.50;;;;;;5093284;28;20032;-70
2022/07/19 03:47:14;;;;;;;6.03;2.63;;;20.60;87.60;;;;;;5092192;28;20038;-70
2022/07/19 03:49:40;;;;;;;4.38;2.28;;;20.60;87.80;;;;;;5091550;28;20051;-70
2022/07/19 03:52:05;;;;;;;5.95;2.53;;;20.60;87.90;;;;;;5093243;28;20453;-70
2022/07/19 03:54:31;;;;;;;5.32;2.90;;;20.60;88.10;;;;;;5093057;28;20173;-70
2022/07/19 03:56:57;;;;;;;5.68;2.53;;;20.60;88.20;;;;;;5093074;28;20031;-71
2022/07/19 03:59:23;;;;;;;5.97;2.53;;;20.60;88.30;;;;;;5092895;28;20032;-70
2022/07/19 04:01:50;;;;;;;5.57;2.53;;;20.50;88.40;;;;;;5092881;28;20027;-70
2022/07/19 04:04:16;;;;;;;6.65;2.58;;;20.60;88.40;;;;;;5093154;28;20113;-70
2022/07/19 04:06:42;;;;;;;4.75;2.20;;;20.60;88.40;;;;;;5092666;28;20067;-70
2022/07/19 04:09:08;;;;;;;4.78;2.30;;;20.60;88.40;;;;;;5092805;28;20047;-71
2022/07/19 04:11:34;;;;;;;7.03;2.60;;;20.60;88.30;;;;;;5092940;28;20381;-71
2022/07/19 04:14:00;;;;;;;5.13;2.65;;;20.60;88.20;;;;;;5092665;28;20077;-70
2022/07/19 04:16:26;;;;;;;6.65;2.53;;;20.50;88.10;;;;;;5092573;28;20024;-70
2022/07/19 04:18:51;;;;;;;5.13;2.22;;;20.60;88.30;;;;;;5092670;28;20265;-70
2022/07/19 04:21:17;;;;;;;5.75;2.63;;;20.50;88.30;;;;;;5092564;28;20024;-70
2022/07/19 04:23:43;;;;;;;7.40;2.58;;;20.50;88.40;;;;;;5092811;28;20063;-71
2022/07/19 04:26:09;;;;;;;7.55;2.80;;;20.50;88.60;;;;;;5092543;28;20448;-70
2022/07/19 04:28:35;;;;;;;9.15;2.50;;;20.50;88.70;;;;;;5092332;28;20052;-70
2022/07/19 04:31:01;;;;;;;6.57;2.55;;;20.50;89.00;;;;;;5092347;28;20027;-70
2022/07/19 04:33:27;;;;;;;4.85;2.67;;;20.60;89.20;;;;;;5092225;28;20027;-70
2022/07/19 04:35:53;;;;;;;6.38;3.13;;;20.60;89.50;;;;;;5090975;28;20449;-70
2022/07/19 04:38:20;;;;;;;7.35;2.80;;;20.60;90.00;;;;;;5092322;28;20028;-71
2022/07/19 04:40:46;;;;;;;6.15;2.65;;;20.60;89.70;;;;;;5092442;28;20032;-71
2022/07/19 04:43:12;;;;;;;7.32;2.67;;;20.70;89.60;;;;;;5091130;28;20036;-71
2022/07/19 04:45:42;;;;;;;6.63;2.72;;;20.70;89.60;;;;;;5092139;28;20032;-71
2022/07/19 04:48:08;;;;;;;8.77;2.92;;;20.70;89.60;;;;;;5090668;28;20161;-71
2022/07/19 04:50:34;;;;;;;5.10;2.70;;;20.80;89.50;;;;;;5091915;28;20496;-71
2022/07/19 04:53:00;;;;;;;6.50;2.53;;;20.80;89.40;;;;;;5091904;28;20032;-71
2022/07/19 04:55:26;;;;;;;5.72;3.08;;;20.90;89.60;;;;;;5092091;28;20024;-71
2022/07/19 04:57:52;;;;;;;7.50;3.00;;;20.90;89.70;;;;;;5091778;28;20149;-71
2022/07/19 05:00:18;;;;;;;8.75;2.92;;;20.90;90.00;;;;;;5091570;28;20103;-71
2022/07/19 05:02:44;;;;;;;5.63;3.03;;;21.00;90.20;;;;;;5091815;28;20548;-71
2022/07/19 05:05:10;;;;;;;6.80;3.15;;;21.10;90.40;;;;;;5091934;28;20030;-71
2022/07/19 05:07:36;;;;;;;5.57;2.70;;;21.10;90.00;;;;;;5091529;28;20477;-70
2022/07/19 05:10:04;;;;;;;8.07;2.95;;;21.10;89.70;;;;;;5091492;28;20114;-71
2022/07/19 05:12:30;;;;;;;10.35;3.17;;;21.20;89.90;;;;;;5091552;28;20158;-71
2022/07/19 05:14:58;;;;;;;5.63;2.88;;;21.20;89.80;;;;;;5091507;28;20043;-71
2022/07/19 05:17:24;;;;;;;6.15;3.20;;;21.30;89.90;;;;;;5091441;28;20415;-71
2022/07/19 05:19:50;;;;;;;5.85;3.25;;;21.30;89.90;;;;;;5091238;28;20528;-71
2022/07/19 05:22:16;;;;;;;6.07;3.08;;;21.40;89.70;;;;;;5091579;28;20119;-71
2022/07/19 05:24:42;;;;;;;6.57;3.17;;;21.50;89.70;;;;;;5091422;28;20109;-71
2022/07/19 05:27:08;;;;;;;7.20;3.70;;;21.50;89.90;;;;;;5091817;28;20559;-71
2022/07/19 05:29:34;;;;;;;8.15;3.50;;;21.50;90.00;;;;;;5091273;28;20036;-70
2022/07/19 05:32:00;;;;;;;8.25;3.97;;;21.60;90.00;;;;;;5091251;28;20043;-71
2022/07/19 05:34:26;;;;;;;7.10;3.42;;;21.60;90.00;;;;;;5091162;28;20536;-71
2022/07/19 05:36:51;;;;;;;9.75;3.65;;;21.70;90.10;;;;;;5091047;28;20035;-71
2022/07/19 05:39:17;;;;;;;6.38;3.33;;;21.70;90.10;;;;;;5089681;28;20084;-71
2022/07/19 05:41:44;;;;;;;8.30;3.83;;;21.70;90.10;;;;;;5090999;28;20392;-71
2022/07/19 05:44:10;;;;;;;7.82;3.80;;;21.80;90.10;;;;;;5091296;28;20051;-71
2022/07/19 05:46:40;;;;;;;7.63;4.03;;;21.80;90.20;;;;;;5091139;28;20149;-71
2022/07/19 05:49:10;;;;;;;10.25;4.00;;;21.90;90.30;;;;;;5091208;28;20475;-71
2022/07/19 05:51:36;;;;;;;7.05;3.78;;;21.90;90.30;;;;;;5091126;28;20058;-71
2022/07/19 05:54:03;;;;;;;8.73;4.03;;;21.90;90.30;;;;;;5090901;28;20094;-71
2022/07/19 05:56:29;;;;;;;9.40;3.75;;;22.00;90.40;;;;;;5090904;28;20034;-70
2022/07/19 05:58:55;;;;;;;6.95;3.40;;;22.00;90.40;;;;;;5090329;28;20074;-71
2022/07/19 06:01:22;;;;;;;7.70;3.38;;;22.10;90.30;;;;;;5090939;28;20418;-70
2022/07/19 06:03:56;;;;;;;7.70;3.00;;;22.10;90.20;;;;;;5091108;28;20028;-70
2022/07/19 06:06:23;;;;;;;6.05;2.70;;;22.20;90.10;;;;;;5112032;22;20046;-84
2022/07/19 06:08:49;;;;;;;4.68;2.60;;;22.20;90.00;;;;;;5088567;28;20092;-80
2022/07/19 06:11:16;;;;;;;6.57;2.90;;;22.20;89.80;;;;;;5089548;28;20442;-80
2022/07/19 06:13:43;;;;;;;5.10;2.70;;;22.30;89.60;;;;;;5089355;28;20399;-80
2022/07/19 06:16:10;;;;;;;7.95;2.95;;;22.40;89.50;;;;;;5072338;28;20028;-80
2022/07/19 06:18:36;;;;;;;9.10;3.25;;;22.40;89.40;;;;;;5090423;28;20032;-80
2022/07/19 06:21:06;;;;;;;8.10;4.07;;;22.50;89.30;;;;;;5090547;28;20027;-80
2022/07/19 06:23:32;;;;;;;6.50;3.38;;;22.50;89.40;;;;;;5090586;28;20040;-80
2022/07/19 06:25:58;;;;;;;6.85;4.10;;;22.50;89.50;;;;;;5090832;28;20024;-80
2022/07/19 06:28:33;;;;;;;5.85;3.90;;;22.50;89.40;;;;;;5090526;28;20399;-80
2022/07/19 06:30:59;;;;;;;8.55;3.80;;;22.60;89.50;;;;;;5090546;28;20038;-80
2022/07/19 06:33:24;;;;;;;6.88;4.15;;;22.60;89.40;;;;;;5090516;28;20028;-80
2022/07/19 06:35:50;;;;;;;6.10;3.70;;;22.70;89.30;;;;;;5090278;28;20051;-80
2022/07/19 06:38:16;;;;;;;7.53;3.85;;;22.70;89.30;;;;;;5090401;28;20025;-80
2022/07/19 06:40:42;;;;;;;6.15;3.33;;;22.70;89.50;;;;;;5090406;28;20032;-80
2022/07/19 06:43:08;;;;;;;5.65;3.20;;;22.80;89.10;;;;;;5089274;28;20445;-80
2022/07/19 06:45:34;;;;;;;5.63;3.20;;;22.80;88.60;;;;;;5090407;28;20059;-80
2022/07/19 06:48:00;;;;;;;7.35;3.63;;;22.80;88.80;;;;;;5090164;28;20039;-80
2022/07/19 06:50:26;;;;;;;4.57;2.38;;;22.80;88.20;;;;;;5090530;28;20028;-81
2022/07/19 06:52:51;;;;;;;6.20;2.90;;;22.80;87.70;;;;;;5089132;28;20058;-80
2022/07/19 06:55:17;;;;;;;4.90;2.70;;;22.90;86.10;;;;;;5089254;28;20108;-80
2022/07/19 06:57:43;;;;;;;5.00;2.42;;;22.90;85.10;;;;;;5090182;28;20515;-80
2022/07/19 07:00:10;;;;;;;4.78;2.55;;;23.00;84.20;;;;;;5090036;28;20058;-81
2022/07/19 07:02:36;;;;;;;4.63;2.30;;;23.00;84.00;;;;;;5090330;28;20040;-81
2022/07/19 07:05:03;;;;;;;3.53;2.30;;;23.00;83.40;;;;;;5090120;28;20025;-81
2022/07/19 07:07:29;;;;;;;8.00;2.70;;;23.00;83.70;;;;;;5088472;28;20043;-81
2022/07/19 07:09:55;;;;;;;8.52;2.47;;;23.10;81.40;;;;;;5089745;28;20020;-81
2022/07/19 07:12:20;;;;;;;7.30;2.50;;;23.20;80.80;;;;;;5093000;28;20101;-81
2022/07/19 07:14:46;;;;;;;7.07;2.50;;;23.20;79.30;;;;;;5093557;28;20119;-81
2022/07/19 07:17:12;;;;;;;6.05;2.58;;;23.30;79.10;;;;;;5093307;28;20024;-81
2022/07/19 07:19:37;;;;;;;7.97;2.40;;;23.40;77.70;;;;;;5093326;28;20472;-81
2022/07/19 07:22:03;;;;;;;7.20;2.40;;;23.50;77.00;;;;;;5093719;28;20028;-81
2022/07/19 07:24:29;;;;;;;9.90;3.08;;;23.60;76.50;;;;;;5093787;28;20055;-81
2022/07/19 07:26:54;;;;;;;8.20;3.25;;;23.70;76.40;;;;;;5093336;28;20024;-81
2022/07/19 07:29:20;;;;;;;6.45;3.45;;;23.80;76.10;;;;;;5091893;28;20035;-81
2022/07/19 07:31:46;;;;;;;8.40;3.58;;;23.90;76.10;;;;;;5093789;28;20047;-81
2022/07/19 07:34:12;;;;;;;5.38;3.47;;;24.00;75.60;;;;;;5093118;28;20480;-81
2022/07/19 07:36:37;;;;;;;5.10;3.35;;;24.10;75.60;;;;;;5092964;28;20122;-81
2022/07/19 07:39:03;;;;;;;7.03;3.45;;;24.10;77.10;;;;;;5093105;28;20032;-81
2022/07/19 07:41:32;;;;;;;5.90;3.13;;;24.10;77.60;;;;;;5092089;28;20032;-81
2022/07/19 07:43:58;;;;;;;7.13;3.83;;;24.10;76.30;;;;;;5093199;28;20032;-81
2022/07/19 07:46:24;;;;;;;5.85;3.33;;;24.20;75.40;;;;;;5092901;28;20035;-81
2022/07/19 07:48:49;;;;;;;6.30;3.10;;;24.20;75.20;;;;;;5091433;28;20067;-81
2022/07/19 07:51:15;;;;;;;6.03;2.97;;;24.20;77.60;;;;;;5093127;28;20488;-81
2022/07/19 07:53:41;;;;;;;7.40;3.50;;;24.20;76.90;;;;;;5092941;28;20067;-81
2022/07/19 07:56:06;;;;;;;7.70;3.92;;;24.30;75.60;;;;;;5092783;28;20040;-81
2022/07/19 07:58:32;;;;;;;7.45;4.07;;;24.30;75.10;;;;;;5092718;28;20020;-81
2022/07/19 08:00:58;;;;;;;8.60;4.60;;;24.40;74.20;;;;;;5093281;28;20507;-81
2022/07/19 08:03:23;;;;;;;7.90;3.83;;;24.40;74.60;;;;;;5092780;28;20076;-81
2022/07/19 08:05:49;;;;;;;6.75;3.92;;;24.40;74.00;;;;;;5092685;28;20032;-81
2022/07/19 08:08:15;;;;;;;7.22;4.15;;;24.50;73.10;;;;;;5092726;28;20503;-81
2022/07/19 08:10:44;;;;;;;7.32;3.72;;;24.50;73.40;;;;;;5092478;28;20066;-81
2022/07/19 08:13:10;;;;;;;;;;;24.60;72.80;;;;;;5093030;28;20024;-81
2022/07/19 08:15:37;;;;;;;7.53;4.00;;;24.60;72.70;;;;;;5092474;28;19977;-81
2022/07/19 08:18:03;;;;;;;8.65;5.30;;;24.60;72.20;;;;;;5092426;28;20056;-81
2022/07/19 08:20:28;;;;;;;10.15;4.20;;;24.80;70.90;;;;;;5092336;28;20052;-81
2022/07/19 08:22:54;;;;;;;7.75;3.33;;;24.90;70.50;;;;;;5092134;28;20082;-82
2022/07/19 08:25:20;;;;;;;8.63;3.28;;;25.00;70.00;;;;;;5091204;28;20039;-81
2022/07/19 08:27:46;;;;;;;7.93;3.20;;;25.10;69.90;;;;;;5092085;28;20024;-81
2022/07/19 08:30:12;;;;;;;9.40;5.43;;;25.20;69.30;;;;;;5091928;28;20028;-81
2022/07/19 08:32:38;;;;;;;10.48;5.20;;;25.40;68.80;;;;;;5092725;28;20025;-81
2022/07/19 08:35:06;;;;;;;7.00;3.92;;;25.40;70.00;;;;;;5092177;28;20063;-81
2022/07/19 08:37:32;;;;;;;8.23;3.60;;;25.40;71.20;;;;;;5092090;28;20024;-81
2022/07/19 08:39:57;;;;;;;5.38;3.03;;;25.40;69.50;;;;;;5091969;28;20028;-81
2022/07/19 08:42:24;;;;;;;8.95;2.60;;;25.40;68.40;;;;;;5092157;28;20099;-81
2022/07/19 08:44:53;;;;;;;7.75;3.10;;;25.40;68.60;;;;;;5091914;28;20495;-82
2022/07/19 08:47:19;;;;;;;;;;;25.50;67.80;;;;;;5092244;28;20032;-81
2022/07/19 08:49:45;;;;;;;7.57;2.70;;;25.50;68.20;;;;;;5091766;28;19908;-82
2022/07/19 08:52:11;;;;;;;7.63;2.90;;;25.60;67.70;;;;;;5091914;28;20043;-81
2022/07/19 08:54:38;;;;;;;6.65;2.60;;;25.60;67.70;;;;;;5091720;28;20043;-81
2022/07/19 08:59:49;;;;;;;6.45;2.90;;;25.60;68.00;;;;;;5091708;28;20032;-81
2022/07/19 09:02:15;;;;;;;6.95;2.92;;;25.60;69.50;;;;;;5091795;28;20032;-81
2022/07/19 09:04:41;;;;;;;6.88;2.90;;;25.60;68.20;;;;;;5091708;28;20213;-81
2022/07/19 09:07:07;;;;;;;5.82;2.63;;;25.70;67.00;;;;;;5091187;28;20043;-81
2022/07/19 09:09:34;;;;;;;5.30;2.70;;;25.90;66.20;;;;;;5091406;28;20032;-81
2022/07/19 09:12:01;;;;;;;5.65;2.42;;;26.00;66.70;;;;;;5091459;28;20062;-81
2022/07/19 09:14:32;;;;;;;4.60;2.70;;;26.00;65.80;;;;;;5091383;28;20043;-81
2022/07/19 09:17:06;;;;;;;5.32;2.50;;;26.00;65.80;;;;;;5091153;28;20036;-81
2022/07/19 09:19:43;;;;;;;4.80;2.40;;;26.00;68.00;;;;;;5089853;28;20020;-81
2022/07/19 09:22:11;;;;;;;3.65;2.33;;;25.90;70.70;;;;;;5090141;28;20024;-81
2022/07/19 09:24:39;;;;;;;6.25;2.75;;;25.80;70.50;;;;;;5091057;28;20036;-81
2022/07/19 09:27:05;;;;;;;5.82;2.50;;;25.60;70.50;;;;;;5090998;28;20024;-81
2022/07/19 09:29:33;;;;;;;4.68;2.83;;;25.60;67.70;;;;;;5090941;28;20428;-81
2022/07/19 09:32:00;;;;;;;6.88;2.78;;;25.70;66.30;;;;;;5091195;28;20477;-81
2022/07/19 09:34:48;;;;;;;4.32;2.70;;;25.70;66.90;;;;;;5090307;28;20028;-81
2022/07/19 09:37:22;;;;;;;6.43;2.80;;;25.70;69.00;;;;;;5089577;28;20404;-81
2022/07/19 09:39:54;;;;;;;7.80;3.13;;;25.60;71.10;;;;;;5090744;28;20034;-81
2022/07/19 09:42:33;;;;;;;4.78;2.72;;;25.60;67.80;;;;;;5091133;28;20036;-81
2022/07/19 09:45:01;;;;;;;14.88;5.07;;;25.60;71.50;;;;;;5090998;28;20039;-81
2022/07/19 09:47:46;;;;;;;6.65;4.03;;;25.70;66.10;;;;;;5090723;28;20066;-81
2022/07/19 09:50:21;;;;;;;7.22;3.90;;;25.80;65.90;;;;;;5090904;28;20039;-81
2022/07/19 09:52:48;;;;;;;5.65;3.38;;;26.00;64.30;;;;;;5072792;28;20059;-81
2022/07/19 09:55:16;;;;;;;6.00;3.20;;;26.00;66.60;;;;;;5090953;28;20028;-81
2022/07/19 09:57:44;;;;;;;5.70;2.95;;;26.00;68.20;;;;;;5072528;28;20468;-81
2022/07/19 10:00:11;;;;;;;;;;;25.90;69.00;;;;;;5091054;28;20475;-81
2022/07/19 10:02:39;;;;;;;4.95;2.60;;;26.10;62.80;;;;;;5090847;28;20189;-81
2022/07/19 10:05:06;;;;;;;6.38;2.40;;;26.20;63.30;;;;;;5091232;28;20391;-81
2022/07/19 10:07:33;;;;;;;7.15;3.40;;;26.20;63.00;;;;;;5089293;28;20128;-81
2022/07/19 10:10:05;;;;;;;5.93;3.05;;;26.50;60.90;;;;;;5089086;28;20093;-81
2022/07/19 10:12:32;;;;;;;3.97;2.63;;;26.60;60.80;;;;;;5090744;28;20043;-81
2022/07/19 10:14:58;;;;;;;6.20;2.90;;;26.60;61.20;;;;;;5090564;28;20032;-81
2022/07/19 10:17:32;;;;;;;5.28;3.67;;;26.70;61.40;;;;;;5090430;28;20430;-81
2022/07/19 10:19:59;;;;;;;5.90;3.13;;;26.70;61.70;;;;;;5090462;28;20068;-81
2022/07/19 10:22:26;;;;;;;6.63;3.20;;;26.60;64.70;;;;;;5090683;28;20028;-82
2022/07/19 10:25:10;;;;;;;7.43;2.55;;;26.40;65.50;;;;;;5090561;28;20101;-81
2022/07/19 10:27:42;;;;;;;8.73;2.70;;;26.30;68.40;;;;;;5090238;28;20089;-81
2022/07/19 10:30:11;;;;;;;8.20;3.47;;;26.30;63.40;;;;;;5090198;28;20119;-81
2022/07/19 10:32:42;;;;;;;4.45;2.50;;;26.50;61.20;;;;;;5089641;28;20051;-81
2022/07/19 10:35:20;;;;;;;5.03;2.90;;;26.60;61.60;;;;;;5090606;28;20024;-81
2022/07/19 10:37:54;;;;;;;6.03;2.90;;;26.70;62.00;;;;;;5090357;28;20085;-81
2022/07/19 10:40:43;;;;;;;7.75;2.35;;;26.80;62.00;;;;;;5090090;28;20052;-81
2022/07/19 10:43:13;;;;;;;3.42;2.13;;;27.20;59.40;;;;;;5090443;28;20024;-81
2022/07/19 10:46:01;;;;;;;4.78;2.55;;;27.30;59.70;;;;;;5092236;28;20035;-81
2022/07/19 10:48:37;;;;;;;8.35;3.08;;;27.40;60.50;;;;;;5085927;28;20048;-81
2022/07/19 10:51:03;;;;;;;5.18;2.90;;;27.50;59.90;;;;;;5094118;28;20119;-81
2022/07/19 10:53:41;;;;;;;10.00;6.80;;;27.50;59.80;;;;;;5093934;28;20107;-81
2022/07/19 10:56:19;;;;;;;6.90;4.07;;;27.60;59.30;;;;;;5093802;28;20526;-81
2022/07/19 10:58:51;;;;;;;4.55;2.50;;;27.70;57.90;;;;;;5093740;28;20067;-81
2022/07/19 11:01:19;;;;;;;5.32;2.75;;;28.00;57.50;;;;;;5093952;28;20031;-81
2022/07/19 11:03:50;;;;;;;10.48;4.25;;;28.00;57.70;;;;;;5093880;28;20028;-81
2022/07/19 11:06:26;;;;;;;3.75;2.42;;;28.10;56.60;;;;;;5093681;28;20395;-81
2022/07/19 11:08:57;;;;;;;6.88;2.33;;;28.30;55.80;;;;;;5093598;28;20067;-81
2022/07/19 11:11:25;;;;;;;6.70;2.88;;;28.50;55.50;;;;;;5093682;28;20042;-81
2022/07/19 11:13:57;;;;;;;10.20;3.50;;;28.60;55.80;;;;;;5094216;28;20039;-81
2022/07/19 11:16:28;;;;;;;7.20;2.63;;;28.70;55.40;;;;;;5093445;28;20032;-82
2022/07/19 11:19:08;;;;;;;3.67;2.17;;;28.80;55.10;;;;;;5093594;28;20028;-81
2022/07/19 11:21:36;;;;;;;7.13;2.85;;;28.90;54.70;;;;;;5093743;28;20028;-81
2022/07/19 11:24:04;;;;;;;8.52;2.70;;;28.80;55.30;;;;;;5093593;28;20492;-81
2022/07/19 11:26:39;;;;;;;4.75;2.90;;;28.80;55.30;;;;;;5092256;28;20052;-81
2022/07/19 11:29:05;;;;;;;4.50;2.42;;;28.80;55.50;;;;;;5092161;28;20028;-81
2022/07/19 11:31:31;;;;;;;4.82;2.38;;;28.70;55.40;;;;;;5093448;28;20457;-81
2022/07/19 11:33:57;;;;;;;4.50;2.20;;;28.60;57.10;;;;;;5093334;28;20032;-81
2022/07/19 11:36:27;;;;;;;4.20;2.38;;;28.40;57.70;;;;;;5093565;28;20138;-81
2022/07/19 11:39:00;;;;;;;5.93;2.40;;;28.40;55.80;;;;;;5091895;28;20391;-82
2022/07/19 11:41:29;;;;;;;3.58;2.33;;;28.50;56.10;;;;;;5093294;28;20024;-81
2022/07/19 11:43:58;;;;;;;;;;;28.60;55.70;;;;;;5092410;28;20032;-81
2022/07/19 11:46:29;;;;;;;2.88;1.80;;;28.40;58.00;;;;;;5092933;28;20306;-81
2022/07/19 11:48:57;;;;;;;4.60;1.90;;;28.10;60.30;;;;;;5093302;28;20103;-81
2022/07/19 11:51:23;;;;;;;4.23;1.80;;;28.20;55.00;;;;;;5091894;28;20473;-81
2022/07/19 11:53:54;;;;;;;5.28;1.98;;;28.40;54.70;;;;;;5093673;28;20376;-81
2022/07/19 11:56:25;;;;;;;4.95;2.00;;;28.50;55.10;;;;;;5091962;28;20548;-81
2022/07/19 11:58:53;;;;;;;3.92;1.80;;;28.60;54.40;;;;;;5092841;28;20028;-81
2022/07/19 12:01:23;;;;;;;3.15;2.05;;;28.60;54.40;;;;;;5093224;28;20097;-81
2022/07/19 12:03:54;;;;;;;3.17;2.10;;;28.50;57.70;;;;;;5093072;28;20039;-81
2022/07/19 12:06:19;;;;;;;4.30;2.28;;;28.50;54.50;;;;;;5092812;28;20077;-81
2022/07/19 12:08:46;;;;;;;5.53;1.95;;;28.50;54.30;;;;;;5092765;28;20499;-81
2022/07/19 12:11:27;;;;;;;3.70;2.63;;;28.40;55.40;;;;;;5092835;28;20502;-81
2022/07/19 12:13:54;;;;;;;5.93;2.63;;;28.40;55.70;;;;;;5092953;28;20024;-81
2022/07/19 12:16:21;;;;;;;4.40;2.47;;;28.60;53.60;;;;;;5092815;28;20024;-81
2022/07/19 12:18:51;;;;;;;7.05;3.22;;;28.70;53.70;;;;;;5091530;28;20135;-81
2022/07/19 12:21:26;;;;;;;8.15;3.55;;;28.90;53.60;;;;;;5092768;28;20230;-81
2022/07/19 12:24:20;;;;;;;4.30;2.33;;;29.10;53.40;;;;;;5091339;28;20036;-82
2022/07/19 12:26:55;;;;;;;4.75;1.80;;;29.40;53.50;;;;;;5092302;28;20040;-82
2022/07/19 12:29:23;;;;;;;3.33;1.95;;;29.60;52.40;;;;;;5092281;28;20392;-82
2022/07/19 12:31:50;;;;;;;;;;;29.60;53.40;;;;;;5093308;28;20024;-82
2022/07/19 12:34:16;;;;;;;6.03;2.95;;;29.70;52.40;;;;;;5090990;28;19919;-82
2022/07/19 12:36:42;;;;;;;5.75;2.90;;;29.90;52.30;;;;;;5092111;28;20039;-82
2022/07/19 12:39:55;;;;;;;4.00;2.20;;;30.00;51.90;;;;;;5090971;28;20016;-82
2022/07/19 12:42:20;;;;;;;4.65;2.40;;;30.20;52.40;;;;;;5064554;28;20089;-82
2022/07/19 12:44:48;;;;;;;4.10;2.30;;;30.30;51.80;;;;;;5092284;28;20492;-82
2022/07/19 12:47:15;;;;;;;;;;;30.40;51.70;;;;;;5092724;28;20400;-82
2022/07/19 12:49:45;;;;;;;4.45;2.45;;;30.60;51.20;;;;;;5091898;28;19962;-82
2022/07/19 12:52:11;;;;;;;4.53;2.00;;;30.80;51.00;;;;;;5091893;28;20067;-82
2022/07/19 12:54:37;;;;;;;5.05;2.00;;;30.70;54.00;;;;;;5091696;28;20534;-82
2022/07/19 12:57:04;;;;;;;3.72;2.22;;;30.40;54.40;;;;;;5091957;28;20040;-82